createdAt,value
2018-02-03T00:00:13.675Z,16.00
2018-02-03T00:01:16.632Z,21.50
2018-02-03T00:02:19.570Z,17.50
2018-02-03T00:03:22.608Z,18.00
2018-02-03T00:04:25.589Z,19.00
2018-02-03T00:05:28.561Z,18.50
2018-02-03T00:06:31.930Z,18.50
2018-02-03T00:07:34.937Z,19.00
2018-02-03T00:08:37.901Z,20.50
2018-02-03T00:09:40.842Z,19.00
2018-02-03T00:10:43.837Z,19.00
2018-02-03T00:11:46.845Z,22.50
2018-02-03T00:12:50.100Z,21.00
2018-02-03T00:13:53.043Z,17.50
2018-02-03T00:14:55.991Z,18.50
2018-02-03T00:15:58.941Z,19.50
2018-02-03T00:17:01.974Z,21.00
2018-02-03T00:18:04.968Z,19.50
2018-02-03T00:19:08.253Z,22.00
2018-02-03T00:20:11.243Z,22.50
2018-02-03T00:21:14.217Z,19.50
2018-02-03T00:22:17.200Z,22.00
2018-02-03T00:23:20.172Z,21.00
2018-02-03T00:24:23.146Z,15.50
2018-02-03T00:25:26.479Z,23.00
2018-02-03T00:26:29.468Z,19.00
2018-02-03T00:27:32.431Z,19.50
2018-02-03T00:28:35.390Z,22.00
2018-02-03T00:29:38.344Z,19.50
2018-02-03T00:30:41.338Z,19.00
2018-02-03T00:31:44.601Z,8.50
2018-02-03T00:32:47.535Z,18.50
2018-02-03T00:33:50.495Z,22.50
2018-02-03T00:34:53.436Z,14.50
2018-02-03T00:35:56.407Z,24.00
2018-02-03T00:36:59.364Z,19.50
2018-02-03T00:38:02.703Z,19.50
2018-02-03T00:39:05.684Z,21.00
2018-02-03T00:40:08.668Z,17.50
2018-02-03T00:41:11.628Z,16.50
2018-02-03T00:42:14.704Z,18.50
2018-02-03T00:43:17.685Z,21.00
2018-02-03T00:44:20.969Z,17.50
2018-02-03T00:45:23.992Z,20.00
2018-02-03T00:46:26.957Z,17.50
2018-02-03T00:47:29.946Z,20.00
2018-02-03T00:48:32.895Z,21.50
2018-02-03T00:49:36.141Z,22.00
2018-02-03T00:50:39.077Z,23.00
2018-02-03T00:51:42.086Z,19.00
2018-02-03T00:52:45.150Z,19.00
2018-02-03T00:53:48.113Z,20.00
2018-02-03T00:54:51.089Z,15.00
2018-02-03T00:55:54.332Z,19.00
2018-02-03T00:56:57.298Z,17.00
2018-02-03T00:58:00.335Z,19.00
2018-02-03T00:59:03.297Z,19.00
2018-02-03T01:00:06.236Z,16.00
2018-02-03T01:01:09.223Z,15.50
2018-02-03T01:02:12.540Z,16.50
2018-02-03T01:03:15.572Z,16.00
2018-02-03T01:04:18.511Z,17.00
2018-02-03T01:05:21.479Z,17.00
2018-02-03T01:06:24.473Z,18.50
2018-02-03T01:07:27.454Z,19.00
2018-02-03T01:08:30.755Z,17.00
2018-02-03T01:09:33.726Z,15.50
2018-02-03T01:10:36.591Z,14.50
2018-02-03T01:11:39.454Z,21.50
2018-02-03T01:12:42.427Z,16.50
2018-02-03T01:13:45.376Z,20.50
2018-02-03T01:14:48.731Z,17.00
2018-02-03T01:15:51.669Z,19.00
2018-02-03T01:16:54.697Z,17.50
2018-02-03T01:17:57.684Z,15.00
2018-02-03T01:19:00.650Z,17.50
2018-02-03T01:20:03.607Z,16.00
2018-02-03T01:21:06.835Z,18.50
2018-02-03T01:22:09.815Z,20.50
2018-02-03T01:23:12.783Z,17.50
2018-02-03T01:24:15.763Z,13.50
2018-02-03T01:25:18.704Z,15.00
2018-02-03T01:26:21.670Z,17.00
2018-02-03T01:27:24.934Z,16.50
2018-02-03T01:28:27.879Z,16.00
2018-02-03T01:29:30.858Z,18.00
2018-02-03T01:30:33.816Z,19.00
2018-02-03T01:31:36.761Z,18.50
2018-02-03T01:32:39.702Z,17.50
2018-02-03T01:33:42.969Z,17.00
2018-02-03T01:34:45.947Z,15.00
2018-02-03T01:35:48.955Z,14.00
2018-02-03T01:36:51.924Z,17.00
2018-02-03T01:37:54.997Z,16.00
2018-02-03T01:38:58.004Z,19.00
2018-02-03T01:40:01.367Z,18.50
2018-02-03T01:41:04.383Z,19.00
2018-02-03T01:42:07.462Z,19.00
2018-02-03T01:43:10.421Z,14.00
2018-02-03T01:44:13.493Z,16.00
2018-02-03T01:45:16.663Z,21.50
2018-02-03T01:46:20.154Z,17.00
2018-02-03T01:47:23.187Z,17.50
2018-02-03T01:48:26.056Z,13.00
2018-02-03T01:49:28.996Z,17.00
2018-02-03T01:50:31.964Z,17.00
2018-02-03T01:51:34.959Z,18.00
2018-02-03T01:52:38.198Z,17.50
2018-02-03T01:53:41.134Z,16.00
2018-02-03T01:54:44.117Z,19.00
2018-02-03T01:55:47.153Z,17.50
2018-02-03T01:56:50.139Z,14.50
2018-02-03T01:57:53.124Z,18.00
2018-02-03T01:58:56.397Z,17.00
2018-02-03T01:59:59.349Z,19.50
2018-02-03T02:01:02.318Z,22.00
2018-02-03T02:02:05.277Z,16.00
2018-02-03T02:03:08.225Z,18.50
2018-02-03T02:04:11.167Z,17.00
2018-02-03T02:05:14.447Z,20.50
2018-02-03T02:06:17.385Z,14.50
2018-02-03T02:07:20.360Z,14.00
2018-02-03T02:08:23.322Z,20.50
2018-02-03T02:09:26.269Z,18.00
2018-02-03T02:10:29.300Z,14.50
2018-02-03T02:11:32.641Z,17.00
2018-02-03T02:12:36.539Z,19.50
2018-02-03T02:13:39.522Z,20.00
2018-02-03T02:14:42.484Z,17.00
2018-02-03T02:15:45.449Z,21.00
2018-02-03T02:16:48.523Z,20.00
2018-02-03T02:17:51.751Z,16.00
2018-02-03T02:18:54.690Z,19.50
2018-02-03T02:19:57.683Z,19.00
2018-02-03T02:21:00.674Z,18.50
2018-02-03T02:22:03.624Z,18.50
2018-02-03T02:23:06.603Z,16.00
2018-02-03T02:24:09.876Z,16.00
2018-02-03T02:25:12.871Z,16.50
2018-02-03T02:26:15.881Z,18.00
2018-02-03T02:27:18.866Z,17.00
2018-02-03T02:28:21.817Z,14.00
2018-02-03T02:29:24.883Z,15.00
2018-02-03T02:30:28.115Z,15.50
2018-02-03T02:31:31.090Z,16.00
2018-02-03T02:32:34.039Z,18.00
2018-02-03T02:33:36.972Z,16.50
2018-02-03T02:34:39.890Z,15.00
2018-02-03T02:35:42.848Z,15.00
2018-02-03T02:36:46.038Z,17.00
2018-02-03T02:37:48.881Z,18.00
2018-02-03T02:38:51.803Z,15.50
2018-02-03T02:39:54.733Z,10.00
2018-02-03T02:40:57.689Z,16.00
2018-02-03T02:42:00.659Z,12.00
2018-02-03T02:43:03.970Z,13.00
2018-02-03T02:44:06.900Z,16.50
2018-02-03T02:45:09.904Z,16.00
2018-02-03T02:46:12.848Z,14.00
2018-02-03T02:47:15.784Z,15.00
2018-02-03T02:48:18.724Z,18.00
2018-02-03T02:49:21.980Z,13.50
2018-02-03T02:50:25.063Z,14.00
2018-02-03T02:51:28.120Z,13.00
2018-02-03T02:52:31.157Z,13.50
2018-02-03T02:53:34.093Z,11.00
2018-02-03T02:54:37.071Z,15.00
2018-02-03T02:55:40.297Z,14.50
2018-02-03T02:56:43.231Z,15.50
2018-02-03T02:57:46.179Z,17.50
2018-02-03T02:58:49.134Z,17.00
2018-02-03T02:59:52.052Z,16.00
2018-02-03T03:00:55.012Z,13.00
2018-02-03T03:01:58.368Z,13.00
2018-02-03T03:03:01.313Z,15.00
2018-02-03T03:04:04.296Z,10.00
2018-02-03T03:05:07.329Z,13.00
2018-02-03T03:06:10.272Z,10.50
2018-02-03T03:07:13.181Z,10.00
2018-02-03T03:08:16.608Z,12.50
2018-02-03T03:09:19.540Z,8.00
2018-02-03T03:10:22.472Z,7.50
2018-02-03T03:11:25.415Z,11.00
2018-02-03T03:12:28.357Z,8.50
2018-02-03T03:13:31.221Z,8.50
2018-02-03T03:14:35.613Z,10.00
2018-02-03T03:15:38.443Z,8.00
2018-02-03T03:16:41.262Z,6.00
2018-02-03T03:17:44.121Z,8.00
2018-02-03T03:18:47.076Z,8.00
2018-02-03T03:19:50.059Z,7.00
2018-02-03T03:20:53.324Z,7.00
2018-02-03T03:21:56.275Z,8.00
2018-02-03T03:22:59.187Z,6.50
2018-02-03T03:24:02.128Z,9.00
2018-02-03T03:25:05.053Z,9.00
2018-02-03T03:26:07.970Z,7.50
2018-02-03T03:27:11.174Z,8.00
2018-02-03T03:28:14.012Z,7.50
2018-02-03T03:29:16.861Z,8.00
2018-02-03T03:30:19.724Z,8.00
2018-02-03T03:31:22.633Z,8.00
2018-02-03T03:32:25.481Z,8.00
2018-02-03T03:33:28.709Z,8.00
2018-02-03T03:34:31.671Z,5.00
2018-02-03T03:35:34.645Z,6.50
2018-02-03T03:36:37.588Z,6.00
2018-02-03T03:37:40.521Z,7.50
2018-02-03T03:38:43.482Z,9.50
2018-02-03T03:39:46.716Z,8.00
2018-02-03T03:40:49.667Z,7.00
2018-02-03T03:41:52.662Z,6.50
2018-02-03T03:42:55.700Z,8.00
2018-02-03T03:43:58.680Z,7.50
2018-02-03T03:45:01.640Z,8.00
2018-02-03T03:46:04.955Z,7.50
2018-02-03T03:47:07.914Z,7.00
2018-02-03T03:48:10.868Z,6.50
2018-02-03T03:49:13.824Z,9.00
2018-02-03T03:50:16.779Z,7.00
2018-02-03T03:51:19.778Z,8.50
2018-02-03T03:52:23.050Z,6.00
2018-02-03T03:53:26.010Z,8.00
2018-02-03T03:54:28.953Z,8.00
2018-02-03T03:55:31.962Z,6.00
2018-02-03T03:56:34.917Z,7.50
2018-02-03T03:57:37.968Z,8.00
2018-02-03T03:58:40.867Z,7.00
2018-02-03T03:59:43.847Z,7.50
2018-02-03T04:00:46.788Z,6.00
2018-02-03T04:01:49.713Z,7.00
2018-02-03T04:02:52.744Z,4.50
2018-02-03T04:03:55.671Z,5.50
2018-02-03T04:04:58.986Z,4.00
2018-02-03T04:06:01.929Z,6.50
2018-02-03T04:07:04.890Z,4.00
2018-02-03T04:08:08.015Z,10.50
2018-02-03T04:09:11.046Z,5.50
2018-02-03T04:10:14.029Z,5.00
2018-02-03T04:11:17.412Z,9.00
2018-02-03T04:12:20.384Z,5.00
2018-02-03T04:13:23.344Z,6.00
2018-02-03T04:14:26.270Z,5.50
2018-02-03T04:15:29.216Z,6.50
2018-02-03T04:16:32.200Z,4.00
2018-02-03T04:17:35.452Z,4.50
2018-02-03T04:18:38.383Z,6.00
2018-02-03T04:19:41.376Z,6.00
2018-02-03T04:20:44.305Z,9.00
2018-02-03T04:21:47.252Z,5.50
2018-02-03T04:22:50.172Z,7.50
2018-02-03T04:23:53.496Z,7.50
2018-02-03T04:24:56.470Z,5.00
2018-02-03T04:25:59.396Z,4.00
2018-02-03T04:27:02.356Z,6.00
2018-02-03T04:28:05.297Z,4.50
2018-02-03T04:29:08.312Z,6.50
2018-02-03T04:30:11.737Z,6.00
2018-02-03T04:31:14.653Z,6.50
2018-02-03T04:32:17.609Z,6.00
2018-02-03T04:33:20.539Z,7.50
2018-02-03T04:34:23.468Z,6.50
2018-02-03T04:35:26.424Z,6.00
2018-02-03T04:36:29.633Z,7.00
2018-02-03T04:37:32.570Z,6.00
2018-02-03T04:38:35.487Z,5.00
2018-02-03T04:39:38.402Z,7.50
2018-02-03T04:40:41.343Z,10.00
2018-02-03T04:41:44.270Z,9.00
2018-02-03T04:42:47.583Z,8.50
2018-02-03T04:43:50.519Z,7.50
2018-02-03T04:44:53.474Z,8.00
2018-02-03T04:45:56.459Z,7.50
2018-02-03T04:46:59.397Z,7.50
2018-02-03T04:48:02.335Z,10.00
2018-02-03T04:49:05.624Z,8.50
2018-02-03T04:50:08.740Z,9.50
2018-02-03T04:51:11.642Z,8.00
2018-02-03T04:52:14.607Z,10.00
2018-02-03T04:53:17.567Z,7.50
2018-02-03T04:54:20.536Z,8.00
2018-02-03T04:55:23.740Z,10.00
2018-02-03T04:56:27.159Z,7.00
2018-02-03T04:57:30.108Z,10.00
2018-02-03T04:58:33.095Z,10.50
2018-02-03T04:59:36.040Z,11.50
2018-02-03T05:00:38.974Z,9.00
2018-02-03T05:01:42.239Z,8.50
2018-02-03T05:02:45.172Z,7.00
2018-02-03T05:03:48.040Z,9.50
2018-02-03T05:04:50.932Z,6.00
2018-02-03T05:05:53.800Z,6.50
2018-02-03T05:06:56.742Z,9.00
2018-02-03T05:07:59.997Z,8.00
2018-02-03T05:09:02.929Z,7.00
2018-02-03T05:10:05.867Z,8.00
2018-02-03T05:11:08.796Z,7.50
2018-02-03T05:12:11.718Z,8.00
2018-02-03T05:13:14.662Z,10.00
2018-02-03T05:14:17.910Z,8.50
2018-02-03T05:15:20.944Z,6.00
2018-02-03T05:16:23.868Z,7.50
2018-02-03T05:17:26.779Z,8.50
2018-02-03T05:18:29.720Z,8.00
2018-02-03T05:19:32.660Z,9.50
2018-02-03T05:20:35.939Z,8.50
2018-02-03T05:21:38.908Z,10.00
2018-02-03T05:22:42.703Z,6.00
2018-02-03T05:23:45.681Z,10.00
2018-02-03T05:24:48.627Z,8.00
2018-02-03T05:25:51.596Z,4.50
2018-02-03T05:26:55.212Z,8.00
2018-02-03T05:27:58.117Z,8.50
2018-02-03T05:29:01.096Z,7.00
2018-02-03T05:30:04.070Z,6.50
2018-02-03T05:31:07.063Z,5.50
2018-02-03T05:32:10.064Z,7.00
2018-02-03T05:33:12.984Z,8.00
2018-02-03T05:34:15.902Z,9.00
2018-02-03T05:35:18.936Z,7.50
2018-02-03T05:36:21.844Z,8.00
2018-02-03T05:37:24.808Z,8.00
2018-02-03T05:38:27.920Z,8.50
2018-02-03T05:39:31.263Z,4.00
2018-02-03T05:40:34.273Z,8.00
2018-02-03T05:41:37.203Z,7.00
2018-02-03T05:42:40.293Z,4.50
2018-02-03T05:43:43.380Z,4.00
2018-02-03T05:44:46.441Z,8.00
2018-02-03T05:45:49.844Z,7.00
2018-02-03T05:46:52.959Z,7.50
2018-02-03T05:47:56.039Z,7.50
2018-02-03T05:48:59.132Z,8.00
2018-02-03T05:50:02.120Z,6.00
2018-02-03T05:51:05.124Z,10.50
2018-02-03T05:52:08.485Z,6.00
2018-02-03T05:53:11.521Z,10.00
2018-02-03T05:54:14.496Z,8.00
2018-02-03T05:55:17.458Z,8.50
2018-02-03T05:56:20.493Z,7.50
2018-02-03T05:57:23.374Z,9.50
2018-02-03T05:58:26.601Z,8.00
2018-02-03T05:59:29.466Z,9.50
2018-02-03T06:00:32.408Z,10.00
2018-02-03T06:01:35.336Z,7.50
2018-02-03T06:02:38.263Z,12.00
2018-02-03T06:03:41.209Z,6.50
2018-02-03T06:04:44.493Z,8.00
2018-02-03T06:05:47.447Z,7.00
2018-02-03T06:06:50.441Z,8.00
2018-02-03T06:07:53.352Z,6.50
2018-02-03T06:08:56.288Z,8.00
2018-02-03T06:09:59.242Z,8.00
2018-02-03T06:11:02.471Z,10.00
2018-02-03T06:12:05.396Z,6.50
2018-02-03T06:13:08.412Z,8.00
2018-02-03T06:14:11.364Z,9.50
2018-02-03T06:15:14.313Z,8.50
2018-02-03T06:16:17.224Z,10.00
2018-02-03T06:17:20.497Z,7.00
2018-02-03T06:18:23.412Z,8.50
2018-02-03T06:19:26.367Z,7.00
2018-02-03T06:20:29.329Z,8.00
2018-02-03T06:21:32.285Z,7.00
2018-02-03T06:22:35.229Z,9.50
2018-02-03T06:23:38.582Z,11.00
2018-02-03T06:24:41.519Z,6.50
2018-02-03T06:25:44.449Z,6.00
2018-02-03T06:26:47.428Z,11.50
2018-02-03T06:27:50.333Z,9.00
2018-02-03T06:28:53.260Z,10.00
2018-02-03T06:29:56.636Z,8.00
2018-02-03T06:30:59.605Z,9.00
2018-02-03T06:32:02.578Z,10.00
2018-02-03T06:33:05.508Z,8.00
2018-02-03T06:34:08.458Z,9.00
2018-02-03T06:35:11.399Z,11.50
2018-02-03T06:36:14.673Z,9.00
2018-02-03T06:37:17.622Z,10.50
2018-02-03T06:38:20.542Z,8.00
2018-02-03T06:39:23.606Z,9.00
2018-02-03T06:40:26.585Z,12.50
2018-02-03T06:41:29.572Z,11.50
2018-02-03T06:42:32.948Z,10.00
2018-02-03T06:43:35.855Z,11.00
2018-02-03T06:44:38.839Z,11.00
2018-02-03T06:45:41.801Z,12.50
2018-02-03T06:46:44.826Z,10.00
2018-02-03T06:47:47.805Z,11.00
2018-02-03T06:48:51.047Z,8.50
2018-02-03T06:49:54.013Z,11.00
2018-02-03T06:50:56.949Z,11.00
2018-02-03T06:51:59.881Z,12.00
2018-02-03T06:53:02.921Z,13.00
2018-02-03T06:54:05.803Z,8.00
2018-02-03T06:55:09.034Z,10.00
2018-02-03T06:56:38.170Z,12.00
2018-02-03T06:57:41.089Z,9.50
2018-02-03T06:58:44.210Z,13.00
2018-02-03T06:59:47.419Z,12.00
2018-02-03T07:00:50.327Z,12.00
2018-02-03T07:01:53.482Z,15.50
2018-02-03T07:02:56.413Z,12.00
2018-02-03T07:03:59.378Z,8.00
2018-02-03T07:05:02.367Z,10.00
2018-02-03T07:06:05.328Z,14.00
2018-02-03T07:07:08.290Z,11.50
2018-02-03T07:08:11.553Z,13.50
2018-02-03T07:09:14.600Z,8.50
2018-02-03T07:10:17.551Z,9.50
2018-02-03T07:11:20.536Z,8.50
2018-02-03T07:12:23.601Z,11.00
2018-02-03T07:13:26.557Z,8.00
2018-02-03T07:14:29.779Z,16.00
2018-02-03T07:15:32.750Z,12.50
2018-02-03T07:16:35.707Z,8.00
2018-02-03T07:17:38.756Z,10.50
2018-02-03T07:18:41.784Z,11.00
2018-02-03T07:19:44.691Z,8.50
2018-02-03T07:20:48.002Z,8.50
2018-02-03T07:21:50.970Z,10.00
2018-02-03T07:22:53.909Z,8.00
2018-02-03T07:23:57.058Z,6.00
2018-02-03T07:25:00.157Z,8.00
2018-02-03T07:26:03.144Z,8.00
2018-02-03T07:27:06.367Z,6.50
2018-02-03T07:28:09.324Z,7.50
2018-02-03T07:29:12.446Z,7.50
2018-02-03T07:30:15.397Z,8.50
2018-02-03T07:31:18.554Z,7.50
2018-02-03T07:32:21.990Z,11.00
2018-02-03T07:33:25.416Z,10.00
2018-02-03T07:34:28.449Z,8.00
2018-02-03T07:35:31.307Z,12.00
2018-02-03T07:36:34.210Z,10.50
2018-02-03T07:37:37.122Z,10.00
2018-02-03T07:38:39.648Z,11.50
2018-02-03T07:39:42.787Z,9.00
2018-02-03T07:40:45.629Z,12.00
2018-02-03T07:41:48.709Z,10.00
2018-02-03T07:42:51.667Z,15.00
2018-02-03T07:43:54.653Z,9.50
2018-02-03T07:44:57.588Z,8.50
2018-02-03T07:46:00.865Z,8.50
2018-02-03T07:47:03.796Z,12.50
2018-02-03T07:48:06.772Z,10.00
2018-02-03T07:49:09.716Z,12.00
2018-02-03T07:50:12.665Z,8.50
2018-02-03T07:51:15.624Z,13.50
2018-02-03T07:52:18.871Z,11.50
2018-02-03T07:53:21.804Z,12.00
2018-02-03T07:54:24.831Z,12.00
2018-02-03T07:55:27.765Z,10.50
2018-02-03T07:56:30.802Z,12.50
2018-02-03T07:57:33.848Z,10.50
2018-02-03T07:58:37.283Z,10.00
2018-02-03T07:59:40.218Z,10.00
2018-02-03T08:00:43.354Z,8.50
2018-02-03T08:01:46.317Z,11.50
2018-02-03T08:02:49.305Z,13.00
2018-02-03T08:03:52.275Z,8.00
2018-02-03T08:04:55.614Z,13.50
2018-02-03T08:05:58.560Z,10.00
2018-02-03T08:07:01.507Z,7.00
2018-02-03T08:08:04.444Z,10.00
2018-02-03T08:09:07.428Z,9.00
2018-02-03T08:10:10.386Z,11.50
2018-02-03T08:11:13.708Z,7.50
2018-02-03T08:12:16.723Z,11.00
2018-02-03T08:13:19.690Z,12.00
2018-02-03T08:14:22.684Z,10.00
2018-02-03T08:15:25.696Z,13.50
2018-02-03T08:16:28.605Z,6.00
2018-02-03T08:17:31.871Z,8.00
2018-02-03T08:18:34.886Z,10.00
2018-02-03T08:19:38.782Z,14.00
2018-02-03T08:20:41.802Z,9.50
2018-02-03T08:21:44.800Z,10.00
2018-02-03T08:22:47.759Z,8.00
2018-02-03T08:23:50.937Z,10.50
2018-02-03T08:24:53.826Z,8.00
2018-02-03T08:25:56.820Z,10.50
2018-02-03T08:26:59.790Z,8.00
2018-02-03T08:28:02.776Z,8.00
2018-02-03T08:29:06.106Z,8.00
2018-02-03T08:30:09.438Z,9.00
2018-02-03T08:31:12.659Z,8.00
2018-02-03T08:32:15.676Z,8.50
2018-02-03T08:33:18.628Z,9.50
2018-02-03T08:34:21.632Z,11.50
2018-02-03T08:35:24.565Z,11.50
2018-02-03T08:36:27.876Z,10.00
2018-02-03T08:37:30.947Z,12.00
2018-02-03T08:38:33.889Z,14.00
2018-02-03T08:39:36.850Z,8.50
2018-02-03T08:40:39.772Z,11.50
2018-02-03T08:41:42.770Z,11.00
2018-02-03T08:42:46.097Z,11.50
2018-02-03T08:43:49.044Z,11.00
2018-02-03T08:44:52.050Z,13.00
2018-02-03T08:45:55.004Z,12.00
2018-02-03T08:46:57.986Z,9.50
2018-02-03T08:48:00.947Z,8.00
2018-02-03T08:49:04.187Z,12.00
2018-02-03T08:50:07.133Z,8.00
2018-02-03T08:51:10.112Z,10.00
2018-02-03T08:52:13.124Z,8.00
2018-02-03T08:53:16.100Z,9.50
2018-02-03T08:54:19.107Z,10.50
2018-02-03T08:55:22.484Z,9.00
2018-02-03T08:56:25.457Z,5.00
2018-02-03T08:57:28.476Z,7.50
2018-02-03T08:58:31.417Z,11.50
2018-02-03T08:59:34.377Z,6.00
2018-02-03T09:00:40.849Z,10.00
2018-02-03T09:01:43.856Z,4.00
2018-02-03T09:02:46.769Z,11.00
2018-02-03T09:03:49.769Z,8.50
2018-02-03T09:04:52.676Z,12.50
2018-02-03T09:05:55.687Z,10.00
2018-02-03T09:06:59.013Z,8.00
2018-02-03T09:08:02.145Z,4.00
2018-02-03T09:09:05.098Z,6.00
2018-02-03T09:10:08.065Z,8.00
2018-02-03T09:11:10.991Z,6.50
2018-02-03T09:12:14.010Z,5.00
2018-02-03T09:13:17.297Z,8.00
2018-02-03T09:14:20.270Z,8.00
2018-02-03T09:15:23.254Z,10.00
2018-02-03T09:16:26.207Z,9.00
2018-02-03T09:17:29.136Z,6.50
2018-02-03T09:18:32.070Z,7.50
2018-02-03T09:19:35.318Z,5.50
2018-02-03T09:20:38.288Z,8.50
2018-02-03T09:21:41.228Z,9.00
2018-02-03T09:22:44.177Z,4.50
2018-02-03T09:23:47.136Z,5.50
2018-02-03T09:24:50.176Z,5.00
2018-02-03T09:25:53.412Z,6.00
2018-02-03T09:26:56.451Z,6.00
2018-02-03T09:27:59.558Z,4.00
2018-02-03T09:29:02.568Z,8.00
2018-02-03T09:30:05.566Z,7.00
2018-02-03T09:31:08.562Z,5.00
2018-02-03T09:32:11.795Z,8.00
2018-02-03T09:33:14.755Z,6.50
2018-02-03T09:34:17.784Z,8.00
2018-02-03T09:35:23.454Z,6.50
2018-02-03T09:36:26.432Z,5.00
2018-02-03T09:37:29.374Z,7.00
2018-02-03T09:38:32.623Z,8.00
2018-02-03T09:39:36.795Z,10.50
2018-02-03T09:40:39.788Z,5.50
2018-02-03T09:41:42.818Z,12.50
2018-02-03T09:42:45.813Z,6.00
2018-02-03T09:43:48.858Z,7.00
2018-02-03T09:44:52.152Z,6.50
2018-02-03T09:45:55.134Z,6.00
2018-02-03T09:46:58.076Z,8.00
2018-02-03T09:48:01.076Z,8.00
2018-02-03T09:49:04.063Z,6.00
2018-02-03T09:50:07.202Z,7.50
2018-02-03T09:51:10.538Z,7.50
2018-02-03T09:52:13.488Z,10.00
2018-02-03T09:53:16.504Z,9.00
2018-02-03T09:54:19.523Z,4.00
2018-02-03T09:55:22.558Z,8.00
2018-02-03T09:56:25.605Z,6.50
2018-02-03T09:57:29.005Z,6.00
2018-02-03T09:58:32.161Z,7.50
2018-02-03T09:59:35.212Z,11.50
2018-02-03T10:00:38.272Z,8.00
2018-02-03T10:01:41.294Z,6.00
2018-02-03T10:02:44.322Z,8.00
2018-02-03T10:03:47.567Z,7.50
2018-02-03T10:04:50.566Z,10.00
2018-02-03T10:05:53.508Z,9.00
2018-02-03T10:06:56.480Z,10.00
2018-02-03T10:07:59.436Z,7.50
2018-02-03T10:09:02.372Z,6.50
2018-02-03T10:10:05.617Z,10.00
2018-02-03T10:11:08.564Z,8.00
2018-02-03T10:12:11.521Z,6.00
2018-02-03T10:13:14.516Z,9.00
2018-02-03T10:14:17.522Z,8.50
2018-02-03T10:15:20.495Z,5.00
2018-02-03T10:16:23.862Z,11.00
2018-02-03T10:17:26.787Z,6.50
2018-02-03T10:18:29.787Z,6.50
2018-02-03T10:19:32.716Z,5.00
2018-02-03T10:20:35.661Z,6.50
2018-02-03T10:21:38.641Z,8.00
2018-02-03T10:22:41.998Z,10.00
2018-02-03T10:23:44.956Z,7.50
2018-02-03T10:24:47.939Z,4.00
2018-02-03T10:25:50.884Z,4.00
2018-02-03T10:26:53.829Z,7.50
2018-02-03T10:27:56.783Z,8.00
2018-02-03T10:29:00.259Z,7.00
2018-02-03T10:30:03.222Z,6.00
2018-02-03T10:31:06.190Z,8.50
2018-02-03T10:32:09.149Z,8.00
2018-02-03T10:33:12.127Z,11.00
2018-02-03T10:34:15.052Z,8.00
2018-02-03T10:35:19.104Z,8.00
2018-02-03T10:36:22.092Z,7.50
2018-02-03T10:37:25.083Z,10.00
2018-02-03T10:38:28.022Z,8.00
2018-02-03T10:39:30.996Z,7.50
2018-02-03T10:40:34.019Z,8.00
2018-02-03T10:41:37.390Z,8.50
2018-02-03T10:42:40.441Z,10.00
2018-02-03T10:43:43.389Z,6.50
2018-02-03T10:44:46.664Z,10.00
2018-02-03T10:45:50.577Z,8.00
2018-02-03T10:46:53.583Z,5.00
2018-02-03T10:47:56.983Z,6.00
2018-02-03T10:48:59.958Z,10.50
2018-02-03T10:50:03.088Z,6.50
2018-02-03T10:51:06.121Z,10.50
2018-02-03T10:52:09.196Z,12.50
2018-02-03T10:53:12.249Z,11.50
2018-02-03T10:54:15.720Z,9.50
2018-02-03T10:55:18.726Z,10.00
2018-02-03T10:56:21.705Z,8.00
2018-02-03T10:57:24.776Z,12.50
2018-02-03T10:58:27.781Z,8.00
2018-02-03T10:59:31.014Z,8.00
2018-02-03T11:00:38.316Z,8.00
2018-02-03T11:01:41.311Z,10.50
2018-02-03T11:02:44.297Z,11.50
2018-02-03T11:03:47.322Z,10.00
2018-02-03T11:04:50.288Z,10.50
2018-02-03T11:05:53.460Z,10.00
2018-02-03T11:06:56.737Z,9.00
2018-02-03T11:07:59.756Z,10.00
2018-02-03T11:09:03.032Z,7.50
2018-02-03T11:10:06.001Z,8.00
2018-02-03T11:11:09.090Z,10.00
2018-02-03T11:12:12.041Z,8.00
2018-02-03T11:13:15.440Z,9.00
2018-02-03T11:14:18.426Z,10.00
2018-02-03T11:15:21.335Z,9.00
2018-02-03T11:16:24.356Z,10.00
2018-02-03T11:17:27.290Z,9.50
2018-02-03T11:18:30.170Z,4.00
2018-02-03T11:19:33.439Z,11.00
2018-02-03T11:20:36.401Z,11.50
2018-02-03T11:21:39.364Z,10.00
2018-02-03T11:22:42.316Z,9.50
2018-02-03T11:23:45.285Z,8.00
2018-02-03T11:24:48.649Z,10.00
2018-02-03T11:25:51.942Z,10.50
2018-02-03T11:26:54.949Z,11.50
2018-02-03T11:27:57.934Z,8.00
2018-02-03T11:29:00.930Z,8.50
2018-02-03T11:30:03.982Z,8.00
2018-02-03T11:31:06.990Z,7.00
2018-02-03T11:32:09.968Z,9.50
2018-02-03T11:33:13.010Z,11.00
2018-02-03T11:34:15.970Z,10.00
2018-02-03T11:35:18.942Z,8.50
2018-02-03T11:36:21.905Z,8.50
2018-02-03T11:37:25.110Z,11.00
2018-02-03T11:38:27.968Z,12.50
2018-02-03T11:39:30.820Z,9.50
2018-02-03T11:40:33.705Z,8.50
2018-02-03T11:41:36.649Z,9.00
2018-02-03T11:42:39.524Z,7.50
2018-02-03T11:43:42.733Z,9.00
2018-02-03T11:44:45.708Z,12.50
2018-02-03T11:45:48.676Z,12.00
2018-02-03T11:46:51.669Z,10.00
2018-02-03T11:47:54.655Z,11.50
2018-02-03T11:48:57.681Z,6.00
2018-02-03T11:50:01.009Z,11.50
2018-02-03T11:51:03.965Z,8.00
2018-02-03T11:52:06.945Z,10.00
2018-02-03T11:53:09.867Z,11.00
2018-02-03T11:54:12.790Z,13.00
2018-02-03T11:55:15.690Z,9.50
2018-02-03T11:56:18.914Z,9.00
2018-02-03T11:57:21.814Z,8.00
2018-02-03T11:58:24.757Z,8.00
2018-02-03T11:59:27.632Z,11.00
2018-02-03T12:00:30.637Z,8.50
2018-02-03T12:01:33.645Z,6.00
2018-02-03T12:02:37.059Z,10.00
2018-02-03T12:03:40.123Z,6.00
2018-02-03T12:04:43.135Z,8.50
2018-02-03T12:05:46.686Z,10.50
2018-02-03T12:06:49.656Z,9.00
2018-02-03T12:07:52.632Z,8.00
2018-02-03T12:08:56.035Z,7.50
2018-02-03T12:09:58.992Z,8.00
2018-02-03T12:11:02.033Z,8.00
2018-02-03T12:12:05.068Z,6.50
2018-02-03T12:13:08.072Z,9.00
2018-02-03T12:14:11.982Z,5.50
2018-02-03T12:15:15.249Z,9.50
2018-02-03T12:16:18.290Z,8.00
2018-02-03T12:17:21.268Z,5.00
2018-02-03T12:18:24.346Z,7.00
2018-02-03T12:19:27.310Z,7.50
2018-02-03T12:20:30.264Z,8.00
2018-02-03T12:21:33.737Z,8.50
2018-02-03T12:22:36.802Z,8.00
2018-02-03T12:23:39.787Z,10.00
2018-02-03T12:24:42.741Z,10.50
2018-02-03T12:25:45.701Z,8.00
2018-02-03T12:26:48.649Z,9.50
2018-02-03T12:27:51.589Z,8.50
2018-02-03T12:28:54.564Z,6.50
2018-02-03T12:29:57.531Z,6.00
2018-02-03T12:31:00.593Z,8.00
2018-02-03T12:32:03.602Z,9.50
2018-02-03T12:33:06.625Z,8.00
2018-02-03T12:34:10.083Z,9.50
2018-02-03T12:35:13.092Z,11.50
2018-02-03T12:36:16.202Z,10.00
2018-02-03T12:37:19.168Z,8.00
2018-02-03T12:38:22.136Z,10.00
2018-02-03T12:39:25.161Z,7.00
2018-02-03T12:40:28.472Z,6.50
2018-02-03T12:41:31.477Z,11.00
2018-02-03T12:42:34.460Z,9.00
2018-02-03T12:43:37.447Z,11.00
2018-02-03T12:44:40.398Z,8.00
2018-02-03T12:45:43.304Z,6.00
2018-02-03T12:46:46.742Z,10.00
2018-02-03T12:47:49.631Z,9.00
2018-02-03T12:48:52.581Z,10.00
2018-02-03T12:49:55.597Z,10.00
2018-02-03T12:50:58.650Z,7.00
2018-02-03T12:52:01.790Z,8.50
2018-02-03T12:53:05.240Z,10.00
2018-02-03T12:54:08.302Z,8.00
2018-02-03T12:55:11.279Z,7.50
2018-02-03T12:56:14.214Z,8.00
2018-02-03T12:57:17.217Z,5.00
2018-02-03T12:58:20.237Z,7.00
2018-02-03T12:59:23.584Z,10.50
2018-02-03T13:00:26.559Z,4.00
2018-02-03T13:01:29.586Z,7.50
2018-02-03T13:02:32.600Z,11.00
2018-02-03T13:03:35.536Z,7.50
2018-02-03T13:04:38.513Z,8.00
2018-02-03T13:05:41.904Z,8.50
2018-02-03T13:06:44.866Z,10.00
2018-02-03T13:07:47.876Z,13.50
2018-02-03T13:08:50.852Z,12.50
2018-02-03T13:09:53.790Z,9.00
2018-02-03T13:10:56.739Z,7.00
2018-02-03T13:11:59.971Z,7.00
2018-02-03T13:13:03.061Z,9.50
2018-02-03T13:14:06.048Z,10.00
2018-02-03T13:15:09.068Z,6.00
2018-02-03T13:16:12.069Z,8.00
2018-02-03T13:17:15.972Z,7.00
2018-02-03T13:18:19.215Z,12.00
2018-02-03T13:19:22.129Z,9.50
2018-02-03T13:20:25.094Z,15.00
2018-02-03T13:21:28.073Z,12.00
2018-02-03T13:22:31.042Z,11.50
2018-02-03T13:23:33.898Z,10.00
2018-02-03T13:24:37.141Z,8.00
2018-02-03T13:25:40.029Z,10.00
2018-02-03T13:26:43.044Z,8.00
2018-02-03T13:27:46.020Z,9.00
2018-02-03T13:28:48.989Z,8.00
2018-02-03T13:29:51.972Z,9.50
2018-02-03T13:30:55.428Z,9.00
2018-02-03T13:31:59.183Z,5.50
2018-02-03T13:33:02.259Z,10.00
2018-02-03T13:34:05.224Z,6.00
2018-02-03T13:35:08.212Z,6.50
2018-02-03T13:36:11.225Z,10.00
2018-02-03T13:37:14.487Z,9.00
2018-02-03T13:38:17.916Z,6.00
2018-02-03T13:39:20.996Z,8.50
2018-02-03T13:40:23.974Z,6.00
2018-02-03T13:41:26.998Z,6.00
2018-02-03T13:42:29.925Z,7.50
2018-02-03T13:43:33.189Z,10.00
2018-02-03T13:44:36.215Z,6.00
2018-02-03T13:45:39.185Z,6.00
2018-02-03T13:46:42.245Z,7.50